sensor_id;sensor_type;location;lat;lon;timestamp;noise_LAeq;noise_LA_min;noise_LA_max;noise_LA01;noise_LA95
53135;Laerm;40912;51.552;9.874;2023-05-23T00:04:37;48.18;47.16;51.62;;
53135;Laerm;40912;51.552;9.874;2023-05-23T00:06:57;48.19;47.05;51.37;;
53135;Laerm;40912;51.552;9.874;2023-05-23T00:09:18;48.18;47.10;51.19;;
53135;Laerm;40912;51.552;9.874;2023-05-23T00:11:38;48.19;47.14;51.23;;
53135;Laerm;40912;51.552;9.874;2023-05-23T00:13:58;48.19;47.16;50.98;;
53135;Laerm;40912;51.552;9.874;2023-05-23T00:16:20;48.19;46.95;51.14;;
53135;Laerm;40912;51.552;9.874;2023-05-23T00:18:40;48.20;46.95;51.44;;
53135;Laerm;40912;51.552;9.874;2023-05-23T00:21:02;48.20;47.16;51.17;;
53135;Laerm;40912;51.552;9.874;2023-05-23T00:25:44;48.20;47.04;51.42;;
53135;Laerm;40912;51.552;9.874;2023-05-23T00:28:07;48.20;46.97;49.33;;
53135;Laerm;40912;51.552;9.874;2023-05-23T00:32:47;48.22;47.18;51.26;;
53135;Laerm;40912;51.552;9.874;2023-05-23T00:35:08;48.20;47.04;50.99;;
53135;Laerm;40912;51.552;9.874;2023-05-23T00:37:28;48.22;47.06;50.47;;
53135;Laerm;40912;51.552;9.874;2023-05-23T00:39:48;48.25;47.24;50.43;;
53135;Laerm;40912;51.552;9.874;2023-05-23T00:44:29;48.25;47.18;51.62;;
53135;Laerm;40912;51.552;9.874;2023-05-23T00:46:50;48.22;47.22;51.47;;
53135;Laerm;40912;51.552;9.874;2023-05-23T00:49:11;48.24;47.20;51.20;;
53135;Laerm;40912;51.552;9.874;2023-05-23T00:51:32;48.19;47.12;51.64;;
53135;Laerm;40912;51.552;9.874;2023-05-23T00:53:52;48.18;47.08;50.75;;
53135;Laerm;40912;51.552;9.874;2023-05-23T00:56:13;48.18;47.08;50.98;;
53135;Laerm;40912;51.552;9.874;2023-05-23T00:58:33;48.19;47.12;50.96;;
53135;Laerm;40912;51.552;9.874;2023-05-23T01:00:54;48.19;47.02;51.43;;
53135;Laerm;40912;51.552;9.874;2023-05-23T01:03:14;48.18;47.18;51.20;;
53135;Laerm;40912;51.552;9.874;2023-05-23T01:05:37;48.20;47.12;51.72;;
53135;Laerm;40912;51.552;9.874;2023-05-23T01:07:58;48.20;47.20;51.47;;
53135;Laerm;40912;51.552;9.874;2023-05-23T01:10:22;48.18;47.08;51.08;;
53135;Laerm;40912;51.552;9.874;2023-05-23T01:19:58;48.18;46.91;51.08;;
53135;Laerm;40912;51.552;9.874;2023-05-23T01:29:57;48.19;46.93;50.97;;
53135;Laerm;40912;51.552;9.874;2023-05-23T01:32:21;48.19;47.10;51.27;;
53135;Laerm;40912;51.552;9.874;2023-05-23T01:34:43;48.18;46.93;50.85;;
53135;Laerm;40912;51.552;9.874;2023-05-23T01:37:08;48.18;47.16;51.01;;
53135;Laerm;40912;51.552;9.874;2023-05-23T01:39:29;48.18;46.80;51.34;;
53135;Laerm;40912;51.552;9.874;2023-05-23T01:41:49;48.21;47.10;51.09;;
53135;Laerm;40912;51.552;9.874;2023-05-23T01:44:10;48.25;47.22;50.20;;
53135;Laerm;40912;51.552;9.874;2023-05-23T01:46:31;48.24;47.06;49.21;;
53135;Laerm;40912;51.552;9.874;2023-05-23T01:48:53;48.23;47.14;50.65;;
53135;Laerm;40912;51.552;9.874;2023-05-23T01:53:34;48.19;47.08;51.05;;
53135;Laerm;40912;51.552;9.874;2023-05-23T01:55:55;48.17;46.95;51.04;;
53135;Laerm;40912;51.552;9.874;2023-05-23T01:58:16;48.19;46.97;51.03;;
53135;Laerm;40912;51.552;9.874;2023-05-23T02:02:56;48.20;47.05;51.29;;
53135;Laerm;40912;51.552;9.874;2023-05-23T02:05:16;48.20;47.16;51.00;;
53135;Laerm;40912;51.552;9.874;2023-05-23T02:07:37;48.19;47.02;49.28;;
53135;Laerm;40912;51.552;9.874;2023-05-23T02:09:57;48.18;47.00;51.41;;
53135;Laerm;40912;51.552;9.874;2023-05-23T02:12:17;48.19;47.06;51.13;;
53135;Laerm;40912;51.552;9.874;2023-05-23T02:14:38;48.20;47.12;51.26;;
53135;Laerm;40912;51.552;9.874;2023-05-23T02:16:58;48.21;47.18;51.36;;
53135;Laerm;40912;51.552;9.874;2023-05-23T02:19:19;48.23;47.06;50.68;;
53135;Laerm;40912;51.552;9.874;2023-05-23T02:21:39;48.23;47.08;51.28;;
53135;Laerm;40912;51.552;9.874;2023-05-23T02:24:00;48.22;47.18;51.60;;
53135;Laerm;40912;51.552;9.874;2023-05-23T02:26:20;48.21;46.93;51.62;;
53135;Laerm;40912;51.552;9.874;2023-05-23T02:28:40;48.21;46.93;51.62;;
53135;Laerm;40912;51.552;9.874;2023-05-23T02:31:01;48.20;47.24;50.72;;
53135;Laerm;40912;51.552;9.874;2023-05-23T02:33:21;48.19;46.93;50.57;;
53135;Laerm;40912;51.552;9.874;2023-05-23T02:35:41;48.21;47.12;51.68;;
53135;Laerm;40912;51.552;9.874;2023-05-23T02:38:01;48.21;46.97;51.37;;
53135;Laerm;40912;51.552;9.874;2023-05-23T02:40:22;48.21;47.15;50.76;;
53135;Laerm;40912;51.552;9.874;2023-05-23T02:42:42;48.21;47.15;50.76;;
53135;Laerm;40912;51.552;9.874;2023-05-23T02:45:02;48.20;47.08;51.47;;
53135;Laerm;40912;51.552;9.874;2023-05-23T02:47:22;48.19;46.97;51.38;;
53135;Laerm;40912;51.552;9.874;2023-05-23T02:49:42;48.19;46.95;50.86;;
53135;Laerm;40912;51.552;9.874;2023-05-23T02:54:23;48.24;47.12;50.87;;
53135;Laerm;40912;51.552;9.874;2023-05-23T02:56:44;48.24;46.91;51.58;;
53135;Laerm;40912;51.552;9.874;2023-05-23T02:59:04;48.28;47.00;51.36;;
53135;Laerm;40912;51.552;9.874;2023-05-23T03:01:24;48.29;47.16;51.33;;
53135;Laerm;40912;51.552;9.874;2023-05-23T03:03:45;48.25;47.14;51.17;;
53135;Laerm;40912;51.552;9.874;2023-05-23T03:06:05;48.27;47.18;51.30;;
53135;Laerm;40912;51.552;9.874;2023-05-23T03:08:25;48.27;47.00;50.90;;
53135;Laerm;40912;51.552;9.874;2023-05-23T03:13:06;48.26;46.84;51.67;;
53135;Laerm;40912;51.552;9.874;2023-05-23T03:15:26;48.28;47.08;51.43;;
53135;Laerm;40912;51.552;9.874;2023-05-23T03:17:46;48.28;47.20;51.24;;
53135;Laerm;40912;51.552;9.874;2023-05-23T03:20:06;48.25;47.22;49.83;;
53135;Laerm;40912;51.552;9.874;2023-05-23T03:22:28;48.25;46.97;49.87;;
53135;Laerm;40912;51.552;9.874;2023-05-23T03:24:49;48.53;47.30;50.31;;
53135;Laerm;40912;51.552;9.874;2023-05-23T03:27:09;49.06;47.30;51.53;;
53135;Laerm;40912;51.552;9.874;2023-05-23T03:29:29;48.95;47.32;51.53;;
53135;Laerm;40912;51.552;9.874;2023-05-23T03:31:49;48.99;47.57;51.53;;
53135;Laerm;40912;51.552;9.874;2023-05-23T03:34:09;49.03;47.52;51.65;;
53135;Laerm;40912;51.552;9.874;2023-05-23T03:36:30;49.08;47.46;52.12;;
53135;Laerm;40912;51.552;9.874;2023-05-23T03:38:52;48.88;47.55;51.70;;
53135;Laerm;40912;51.552;9.874;2023-05-23T03:41:12;48.83;47.36;51.51;;
53135;Laerm;40912;51.552;9.874;2023-05-23T03:43:32;48.83;47.77;51.35;;
53135;Laerm;40912;51.552;9.874;2023-05-23T03:48:13;48.22;47.12;50.91;;
53135;Laerm;40912;51.552;9.874;2023-05-23T03:50:33;48.21;47.12;50.74;;
53135;Laerm;40912;51.552;9.874;2023-05-23T03:52:53;48.21;47.26;51.37;;
53135;Laerm;40912;51.552;9.874;2023-05-23T03:55:13;48.21;47.12;51.77;;
53135;Laerm;40912;51.552;9.874;2023-05-23T03:57:33;48.26;47.14;51.09;;
53135;Laerm;40912;51.552;9.874;2023-05-23T03:59:54;48.27;46.97;50.92;;
53135;Laerm;40912;51.552;9.874;2023-05-23T04:02:14;48.21;47.06;51.09;;
53135;Laerm;40912;51.552;9.874;2023-05-23T04:04:34;48.21;47.22;49.28;;
53135;Laerm;40912;51.552;9.874;2023-05-23T04:06:55;48.21;47.14;51.23;;
53135;Laerm;40912;51.552;9.874;2023-05-23T04:09:15;48.21;47.04;51.10;;
53135;Laerm;40912;51.552;9.874;2023-05-23T04:11:35;48.22;47.10;50.99;;
53135;Laerm;40912;51.552;9.874;2023-05-23T04:13:56;48.21;47.12;51.80;;
53135;Laerm;40912;51.552;9.874;2023-05-23T04:16:17;48.20;47.20;51.20;;
53135;Laerm;40912;51.552;9.874;2023-05-23T04:18:37;48.20;46.97;51.56;;
53135;Laerm;40912;51.552;9.874;2023-05-23T04:20:58;48.21;47.22;50.84;;
53135;Laerm;40912;51.552;9.874;2023-05-23T04:23:19;48.21;47.14;50.79;;
53135;Laerm;40912;51.552;9.874;2023-05-23T04:25:39;48.21;47.12;49.41;;
53135;Laerm;40912;51.552;9.874;2023-05-23T04:27:59;48.21;47.08;50.91;;
53135;Laerm;40912;51.552;9.874;2023-05-23T04:35:01;48.22;47.20;51.30;;
53135;Laerm;40912;51.552;9.874;2023-05-23T04:37:23;48.22;46.97;51.31;;
53135;Laerm;40912;51.552;9.874;2023-05-23T04:39:44;48.21;47.19;49.21;;
53135;Laerm;40912;51.552;9.874;2023-05-23T04:42:06;48.26;46.95;51.04;;
53135;Laerm;40912;51.552;9.874;2023-05-23T04:44:26;48.27;47.22;51.02;;
53135;Laerm;40912;51.552;9.874;2023-05-23T04:46:49;48.28;47.14;51.55;;
53135;Laerm;40912;51.552;9.874;2023-05-23T04:49:09;48.26;47.12;51.41;;
53135;Laerm;40912;51.552;9.874;2023-05-23T04:51:29;48.26;47.16;51.14;;
53135;Laerm;40912;51.552;9.874;2023-05-23T04:53:50;48.26;47.18;51.62;;
53135;Laerm;40912;51.552;9.874;2023-05-23T04:56:11;48.25;47.20;51.17;;
53135;Laerm;40912;51.552;9.874;2023-05-23T04:58:31;48.27;47.12;51.80;;
53135;Laerm;40912;51.552;9.874;2023-05-23T05:00:52;48.24;47.07;51.03;;
53135;Laerm;40912;51.552;9.874;2023-05-23T05:03:12;48.26;47.12;50.96;;
53135;Laerm;40912;51.552;9.874;2023-05-23T05:05:32;48.25;47.22;50.58;;
53135;Laerm;40912;51.552;9.874;2023-05-23T05:07:53;48.24;47.16;51.20;;
53135;Laerm;40912;51.552;9.874;2023-05-23T05:10:13;48.24;47.16;51.56;;
53135;Laerm;40912;51.552;9.874;2023-05-23T05:12:35;48.29;46.95;51.47;;
53135;Laerm;40912;51.552;9.874;2023-05-23T05:14:56;48.35;47.08;50.92;;
53135;Laerm;40912;51.552;9.874;2023-05-23T05:17:16;48.32;47.22;51.24;;
53135;Laerm;40912;51.552;9.874;2023-05-23T05:21:57;48.30;47.12;51.59;;
53135;Laerm;40912;51.552;9.874;2023-05-23T05:24:19;48.28;47.18;50.63;;
53135;Laerm;40912;51.552;9.874;2023-05-23T05:26:41;48.26;46.87;51.17;;
53135;Laerm;40912;51.552;9.874;2023-05-23T05:29:02;48.26;47.24;51.16;;
53135;Laerm;40912;51.552;9.874;2023-05-23T05:33:43;48.26;47.08;51.19;;
53135;Laerm;40912;51.552;9.874;2023-05-23T05:36:05;48.28;47.16;51.69;;
53135;Laerm;40912;51.552;9.874;2023-05-23T05:43:06;48.25;47.16;51.03;;
53135;Laerm;40912;51.552;9.874;2023-05-23T05:50:07;48.22;47.04;49.63;;
53135;Laerm;40912;51.552;9.874;2023-05-23T05:52:29;48.22;47.02;50.91;;
53135;Laerm;40912;51.552;9.874;2023-05-23T05:59:29;48.20;47.04;51.22;;
53135;Laerm;40912;51.552;9.874;2023-05-23T06:01:50;48.21;47.06;51.35;;
53135;Laerm;40912;51.552;9.874;2023-05-23T06:08:51;48.20;47.06;50.66;;
53135;Laerm;40912;51.552;9.874;2023-05-23T06:11:12;48.21;47.14;50.67;;
53135;Laerm;40912;51.552;9.874;2023-05-23T06:13:32;48.25;47.10;51.47;;
53135;Laerm;40912;51.552;9.874;2023-05-23T06:15:53;48.24;47.18;49.35;;
53135;Laerm;40912;51.552;9.874;2023-05-23T06:22:53;48.27;47.18;51.44;;
53135;Laerm;40912;51.552;9.874;2023-05-23T06:25:14;48.25;47.12;51.62;;
53135;Laerm;40912;51.552;9.874;2023-05-23T06:27:34;48.23;47.24;51.46;;
53135;Laerm;40912;51.552;9.874;2023-05-23T06:29:54;48.21;47.12;51.26;;
53135;Laerm;40912;51.552;9.874;2023-05-23T06:32:14;48.22;47.10;49.25;;
53135;Laerm;40912;51.552;9.874;2023-05-23T06:34:35;48.24;47.08;49.78;;
53135;Laerm;40912;51.552;9.874;2023-05-23T06:36:55;48.25;47.22;51.26;;
53135;Laerm;40912;51.552;9.874;2023-05-23T06:39:15;48.25;47.13;51.18;;
53135;Laerm;40912;51.552;9.874;2023-05-23T06:46:16;48.22;47.12;50.67;;
53135;Laerm;40912;51.552;9.874;2023-05-23T06:48:36;48.21;46.93;51.22;;
53135;Laerm;40912;51.552;9.874;2023-05-23T06:53:16;48.23;47.08;51.14;;
53135;Laerm;40912;51.552;9.874;2023-05-23T06:55:37;48.23;47.12;49.32;;
53135;Laerm;40912;51.552;9.874;2023-05-23T07:00:18;48.19;47.08;51.72;;
53135;Laerm;40912;51.552;9.874;2023-05-23T07:02:38;48.20;47.08;51.08;;
53135;Laerm;40912;51.552;9.874;2023-05-23T07:07:18;48.21;47.18;51.20;;
53135;Laerm;40912;51.552;9.874;2023-05-23T07:09:39;48.18;46.97;50.88;;
53135;Laerm;40912;51.552;9.874;2023-05-23T07:11:59;48.18;47.22;49.33;;
53135;Laerm;40912;51.552;9.874;2023-05-23T07:14:19;48.17;47.06;51.48;;
53135;Laerm;40912;51.552;9.874;2023-05-23T07:16:40;48.18;46.88;49.46;;
53135;Laerm;40912;51.552;9.874;2023-05-23T07:19:00;48.18;47.12;51.82;;
53135;Laerm;40912;51.552;9.874;2023-05-23T07:21:20;48.18;47.06;51.67;;
53135;Laerm;40912;51.552;9.874;2023-05-23T07:23:41;48.17;47.05;50.66;;
53135;Laerm;40912;51.552;9.874;2023-05-23T07:26:01;48.19;47.14;50.17;;
53135;Laerm;40912;51.552;9.874;2023-05-23T07:30:42;48.18;46.97;51.42;;
53135;Laerm;40912;51.552;9.874;2023-05-23T07:33:02;48.18;47.10;51.18;;
53135;Laerm;40912;51.552;9.874;2023-05-23T07:35:22;48.18;47.14;51.27;;
53135;Laerm;40912;51.552;9.874;2023-05-23T07:40:06;48.20;47.06;50.60;;
53135;Laerm;40912;51.552;9.874;2023-05-23T07:42:30;48.20;47.08;51.37;;
53135;Laerm;40912;51.552;9.874;2023-05-23T07:44:50;48.19;46.97;51.08;;
53135;Laerm;40912;51.552;9.874;2023-05-23T07:47:10;48.21;46.92;51.27;;
53135;Laerm;40912;51.552;9.874;2023-05-23T07:49:30;48.21;47.04;51.54;;
53135;Laerm;40912;51.552;9.874;2023-05-23T07:51:51;48.20;47.06;50.86;;
53135;Laerm;40912;51.552;9.874;2023-05-23T07:56:31;48.18;47.16;51.06;;
53135;Laerm;40912;51.552;9.874;2023-05-23T07:58:51;48.21;46.97;51.33;;
53135;Laerm;40912;51.552;9.874;2023-05-23T08:01:11;48.19;47.13;51.10;;
53135;Laerm;40912;51.552;9.874;2023-05-23T08:03:32;48.20;47.08;51.40;;
53135;Laerm;40912;51.552;9.874;2023-05-23T08:05:52;48.21;47.08;50.76;;
53135;Laerm;40912;51.552;9.874;2023-05-23T08:08:12;48.22;46.97;51.07;;
53135;Laerm;40912;51.552;9.874;2023-05-23T08:12:53;48.21;47.10;51.12;;
53135;Laerm;40912;51.552;9.874;2023-05-23T08:15:13;48.21;47.02;51.56;;
53135;Laerm;40912;51.552;9.874;2023-05-23T08:19:54;48.21;47.10;51.59;;
53135;Laerm;40912;51.552;9.874;2023-05-23T08:22:14;48.21;47.18;51.37;;
53135;Laerm;40912;51.552;9.874;2023-05-23T08:24:34;48.20;47.24;49.81;;
53135;Laerm;40912;51.552;9.874;2023-05-23T08:26:54;48.19;47.18;51.16;;
53135;Laerm;40912;51.552;9.874;2023-05-23T08:29:15;48.20;47.14;51.21;;
53135;Laerm;40912;51.552;9.874;2023-05-23T08:31:35;48.20;47.14;49.27;;
53135;Laerm;40912;51.552;9.874;2023-05-23T08:36:15;48.21;47.10;50.70;;
53135;Laerm;40912;51.552;9.874;2023-05-23T08:38:35;48.25;47.06;51.44;;
53135;Laerm;40912;51.552;9.874;2023-05-23T08:40:56;48.27;47.26;51.39;;
53135;Laerm;40912;51.552;9.874;2023-05-23T08:43:19;48.28;47.18;51.15;;
53135;Laerm;40912;51.552;9.874;2023-05-23T08:45:39;48.26;47.16;51.47;;
53135;Laerm;40912;51.552;9.874;2023-05-23T08:47:59;48.27;46.89;50.67;;
53135;Laerm;40912;51.552;9.874;2023-05-23T08:50:20;48.27;47.14;50.13;;
53135;Laerm;40912;51.552;9.874;2023-05-23T08:52:47;48.26;46.97;50.55;;
53135;Laerm;40912;51.552;9.874;2023-05-23T08:55:09;48.26;47.06;50.24;;
53135;Laerm;40912;51.552;9.874;2023-05-23T08:57:30;48.29;47.18;50.10;;
53135;Laerm;40912;51.552;9.874;2023-05-23T08:59:50;48.26;47.22;51.06;;
53135;Laerm;40912;51.552;9.874;2023-05-23T09:02:11;48.33;47.04;51.75;;
53135;Laerm;40912;51.552;9.874;2023-05-23T09:04:31;48.29;47.00;50.72;;
53135;Laerm;40912;51.552;9.874;2023-05-23T09:06:52;48.26;47.00;51.56;;
53135;Laerm;40912;51.552;9.874;2023-05-23T09:11:34;48.24;47.18;51.02;;
53135;Laerm;40912;51.552;9.874;2023-05-23T09:16:15;48.29;47.16;50.37;;
53135;Laerm;40912;51.552;9.874;2023-05-23T09:18:40;48.29;47.12;51.13;;
53135;Laerm;40912;51.552;9.874;2023-05-23T09:21:00;48.28;47.04;51.40;;
53135;Laerm;40912;51.552;9.874;2023-05-23T09:23:20;48.29;47.06;51.02;;
53135;Laerm;40912;51.552;9.874;2023-05-23T09:25:47;48.29;47.20;51.28;;
53135;Laerm;40912;51.552;9.874;2023-05-23T09:28:07;48.26;47.18;51.08;;
53135;Laerm;40912;51.552;9.874;2023-05-23T09:30:28;48.26;46.89;51.74;;
53135;Laerm;40912;51.552;9.874;2023-05-23T09:32:59;48.26;47.18;51.64;;
53135;Laerm;40912;51.552;9.874;2023-05-23T09:35:22;48.19;47.02;51.08;;
53135;Laerm;40912;51.552;9.874;2023-05-23T09:37:43;48.20;47.10;51.37;;
53135;Laerm;40912;51.552;9.874;2023-05-23T09:40:07;48.20;47.10;51.30;;
53135;Laerm;40912;51.552;9.874;2023-05-23T09:42:31;48.21;47.12;50.41;;
53135;Laerm;40912;51.552;9.874;2023-05-23T09:44:55;48.24;47.12;50.92;;
53135;Laerm;40912;51.552;9.874;2023-05-23T09:47:15;48.22;47.06;51.44;;
53135;Laerm;40912;51.552;9.874;2023-05-23T09:49:37;48.21;47.12;51.23;;
53135;Laerm;40912;51.552;9.874;2023-05-23T09:51:58;48.22;47.18;51.41;;
53135;Laerm;40912;51.552;9.874;2023-05-23T09:54:19;48.21;46.95;50.02;;
53135;Laerm;40912;51.552;9.874;2023-05-23T09:56:39;48.24;47.16;51.43;;
53135;Laerm;40912;51.552;9.874;2023-05-23T09:59:02;48.21;47.10;51.42;;
53135;Laerm;40912;51.552;9.874;2023-05-23T10:01:25;48.21;47.14;51.34;;
53135;Laerm;40912;51.552;9.874;2023-05-23T10:08:36;48.21;46.91;51.70;;
53135;Laerm;40912;51.552;9.874;2023-05-23T10:13:33;48.22;47.10;51.11;;
53135;Laerm;40912;51.552;9.874;2023-05-23T10:15:54;48.22;47.04;51.77;;
53135;Laerm;40912;51.552;9.874;2023-05-23T10:18:20;48.21;47.10;51.22;;
53135;Laerm;40912;51.552;9.874;2023-05-23T10:20:42;48.22;47.16;52.03;;
53135;Laerm;40912;51.552;9.874;2023-05-23T10:23:03;48.22;47.02;51.52;;
53135;Laerm;40912;51.552;9.874;2023-05-23T10:25:24;48.21;47.24;49.47;;
53135;Laerm;40912;51.552;9.874;2023-05-23T10:27:44;48.21;47.19;51.32;;
53135;Laerm;40912;51.552;9.874;2023-05-23T10:30:08;48.20;47.12;51.25;;
53135;Laerm;40912;51.552;9.874;2023-05-23T10:32:28;48.21;47.18;51.50;;
53135;Laerm;40912;51.552;9.874;2023-05-23T10:42:10;48.21;47.08;50.55;;
53135;Laerm;40912;51.552;9.874;2023-05-23T10:44:32;48.21;47.10;49.38;;
53135;Laerm;40912;51.552;9.874;2023-05-23T10:46:53;48.21;47.10;51.18;;
53135;Laerm;40912;51.552;9.874;2023-05-23T10:49:14;48.22;47.18;51.13;;
53135;Laerm;40912;51.552;9.874;2023-05-23T10:51:37;48.23;46.95;49.30;;
53135;Laerm;40912;51.552;9.874;2023-05-23T10:53:57;48.22;47.16;51.14;;
53135;Laerm;40912;51.552;9.874;2023-05-23T10:56:18;48.22;47.02;50.43;;
53135;Laerm;40912;51.552;9.874;2023-05-23T10:58:42;48.23;47.15;51.44;;
53135;Laerm;40912;51.552;9.874;2023-05-23T11:01:07;48.23;47.14;49.92;;
53135;Laerm;40912;51.552;9.874;2023-05-23T11:03:31;48.21;47.10;51.59;;
53135;Laerm;40912;51.552;9.874;2023-05-23T11:05:54;48.21;47.16;50.68;;
53135;Laerm;40912;51.552;9.874;2023-05-23T11:08:14;48.24;47.18;51.01;;
53135;Laerm;40912;51.552;9.874;2023-05-23T11:10:57;48.27;47.14;50.05;;
53135;Laerm;40912;51.552;9.874;2023-05-23T11:13:21;48.22;47.04;51.37;;
53135;Laerm;40912;51.552;9.874;2023-05-23T11:18:04;48.21;47.20;51.51;;
53135;Laerm;40912;51.552;9.874;2023-05-23T11:20:25;48.22;47.22;51.67;;
53135;Laerm;40912;51.552;9.874;2023-05-23T11:23:08;48.22;46.87;50.68;;
53135;Laerm;40912;51.552;9.874;2023-05-23T11:25:40;48.21;47.02;51.37;;
53135;Laerm;40912;51.552;9.874;2023-05-23T11:30:22;48.20;46.97;51.10;;
53135;Laerm;40912;51.552;9.874;2023-05-23T11:32:52;48.22;47.02;49.41;;
53135;Laerm;40912;51.552;9.874;2023-05-23T11:35:13;48.20;47.12;49.21;;
53135;Laerm;40912;51.552;9.874;2023-05-23T11:37:35;48.22;47.04;49.21;;
53135;Laerm;40912;51.552;9.874;2023-05-23T11:39:57;48.20;47.24;49.19;;
53135;Laerm;40912;51.552;9.874;2023-05-23T11:42:17;48.20;46.95;50.48;;
53135;Laerm;40912;51.552;9.874;2023-05-23T11:44:37;48.22;47.00;51.25;;
53135;Laerm;40912;51.552;9.874;2023-05-23T11:47:01;48.22;47.20;51.13;;
53135;Laerm;40912;51.552;9.874;2023-05-23T11:49:21;48.22;47.12;51.27;;
53135;Laerm;40912;51.552;9.874;2023-05-23T11:51:42;48.23;47.18;51.18;;
53135;Laerm;40912;51.552;9.874;2023-05-23T11:54:02;48.23;47.12;51.42;;
53135;Laerm;40912;51.552;9.874;2023-05-23T11:56:22;48.23;47.16;50.77;;
53135;Laerm;40912;51.552;9.874;2023-05-23T12:01:04;48.24;46.84;51.33;;
53135;Laerm;40912;51.552;9.874;2023-05-23T12:03:28;48.22;47.14;51.26;;
53135;Laerm;40912;51.552;9.874;2023-05-23T12:05:48;48.21;47.12;51.02;;
53135;Laerm;40912;51.552;9.874;2023-05-23T12:10:29;48.24;46.91;49.55;;
53135;Laerm;40912;51.552;9.874;2023-05-23T12:17:32;48.25;46.97;50.72;;
53135;Laerm;40912;51.552;9.874;2023-05-23T12:19:52;48.25;47.22;51.42;;
53135;Laerm;40912;51.552;9.874;2023-05-23T12:22:13;48.24;47.22;51.37;;
53135;Laerm;40912;51.552;9.874;2023-05-23T12:24:33;48.25;47.14;49.33;;
53135;Laerm;40912;51.552;9.874;2023-05-23T12:26:54;48.24;47.16;51.53;;
53135;Laerm;40912;51.552;9.874;2023-05-23T12:34:10;48.23;46.95;50.77;;
53135;Laerm;40912;51.552;9.874;2023-05-23T12:38:51;48.22;47.10;51.13;;
53135;Laerm;40912;51.552;9.874;2023-05-23T12:41:14;48.22;47.10;51.13;;
53135;Laerm;40912;51.552;9.874;2023-05-23T12:43:38;48.26;47.07;51.16;;
53135;Laerm;40912;51.552;9.874;2023-05-23T12:45:59;48.24;47.28;51.52;;
53135;Laerm;40912;51.552;9.874;2023-05-23T12:48:19;48.21;47.04;49.36;;
53135;Laerm;40912;51.552;9.874;2023-05-23T12:50:39;48.22;47.16;51.83;;
53135;Laerm;40912;51.552;9.874;2023-05-23T12:52:59;48.23;47.12;51.13;;
53135;Laerm;40912;51.552;9.874;2023-05-23T12:55:20;48.22;47.08;51.22;;
53135;Laerm;40912;51.552;9.874;2023-05-23T12:57:40;48.23;47.12;49.36;;
53135;Laerm;40912;51.552;9.874;2023-05-23T13:00:00;48.25;47.06;51.43;;
53135;Laerm;40912;51.552;9.874;2023-05-23T13:02:21;48.23;47.02;51.33;;
53135;Laerm;40912;51.552;9.874;2023-05-23T13:04:42;48.21;47.10;51.08;;
53135;Laerm;40912;51.552;9.874;2023-05-23T13:07:02;48.23;47.24;51.01;;
53135;Laerm;40912;51.552;9.874;2023-05-23T13:09:22;48.24;47.12;51.43;;
53135;Laerm;40912;51.552;9.874;2023-05-23T13:14:03;48.25;47.12;51.50;;
53135;Laerm;40912;51.552;9.874;2023-05-23T13:16:23;48.25;47.12;51.10;;
53135;Laerm;40912;51.552;9.874;2023-05-23T13:18:43;48.24;47.24;50.86;;
53135;Laerm;40912;51.552;9.874;2023-05-23T13:21:03;48.26;47.28;50.64;;
53135;Laerm;40912;51.552;9.874;2023-05-23T13:23:24;48.23;47.06;51.19;;
53135;Laerm;40912;51.552;9.874;2023-05-23T13:28:05;48.24;47.00;49.25;;
53135;Laerm;40912;51.552;9.874;2023-05-23T13:30:25;48.24;47.26;49.24;;
53135;Laerm;40912;51.552;9.874;2023-05-23T13:32:45;48.24;47.14;51.43;;
53135;Laerm;40912;51.552;9.874;2023-05-23T13:35:06;48.24;47.00;51.26;;
53135;Laerm;40912;51.552;9.874;2023-05-23T13:37:26;48.25;47.16;49.19;;
53135;Laerm;40912;51.552;9.874;2023-05-23T13:39:47;48.26;47.16;51.15;;
53135;Laerm;40912;51.552;9.874;2023-05-23T13:42:07;48.24;46.97;51.56;;
53135;Laerm;40912;51.552;9.874;2023-05-23T13:51:28;48.26;47.14;49.69;;
53135;Laerm;40912;51.552;9.874;2023-05-23T13:53:48;48.28;47.22;51.19;;
53135;Laerm;40912;51.552;9.874;2023-05-23T13:56:09;48.27;47.20;50.64;;
53135;Laerm;40912;51.552;9.874;2023-05-23T14:00:49;48.30;47.20;51.63;;
53135;Laerm;40912;51.552;9.874;2023-05-23T14:05:29;48.31;47.28;51.42;;
53135;Laerm;40912;51.552;9.874;2023-05-23T14:10:10;48.30;47.20;49.30;;
53135;Laerm;40912;51.552;9.874;2023-05-23T14:14:51;48.29;47.10;50.57;;
53135;Laerm;40912;51.552;9.874;2023-05-23T14:17:14;48.33;47.34;49.47;;
53135;Laerm;40912;51.552;9.874;2023-05-23T14:19:35;48.36;47.28;51.49;;
53135;Laerm;40912;51.552;9.874;2023-05-23T14:21:55;48.33;47.26;51.49;;
53135;Laerm;40912;51.552;9.874;2023-05-23T14:24:16;48.33;47.00;51.23;;
53135;Laerm;40912;51.552;9.874;2023-05-23T14:26:36;48.34;47.28;51.40;;
53135;Laerm;40912;51.552;9.874;2023-05-23T14:28:56;48.34;47.28;51.40;;
53135;Laerm;40912;51.552;9.874;2023-05-23T14:31:16;48.31;46.91;51.31;;
53135;Laerm;40912;51.552;9.874;2023-05-23T14:33:37;48.30;47.06;51.73;;
53135;Laerm;40912;51.552;9.874;2023-05-23T14:38:17;48.29;47.16;51.53;;
53135;Laerm;40912;51.552;9.874;2023-05-23T14:40:37;48.27;47.18;51.37;;
53135;Laerm;40912;51.552;9.874;2023-05-23T14:42:57;48.29;47.32;51.33;;
53135;Laerm;40912;51.552;9.874;2023-05-23T14:45:18;48.30;47.18;51.49;;
53135;Laerm;40912;51.552;9.874;2023-05-23T14:47:38;48.33;47.26;51.27;;
53135;Laerm;40912;51.552;9.874;2023-05-23T14:49:58;48.27;47.26;51.49;;
53135;Laerm;40912;51.552;9.874;2023-05-23T14:52:19;48.24;47.18;51.58;;
53135;Laerm;40912;51.552;9.874;2023-05-23T14:57:06;48.26;47.12;51.78;;
53135;Laerm;40912;51.552;9.874;2023-05-23T14:59:27;48.27;47.30;51.05;;
53135;Laerm;40912;51.552;9.874;2023-05-23T15:01:48;48.28;47.08;50.79;;
53135;Laerm;40912;51.552;9.874;2023-05-23T15:04:08;48.28;47.20;51.39;;
53135;Laerm;40912;51.552;9.874;2023-05-23T15:06:28;48.34;47.24;51.48;;
53135;Laerm;40912;51.552;9.874;2023-05-23T15:08:48;48.37;47.36;51.17;;
53135;Laerm;40912;51.552;9.874;2023-05-23T15:11:09;48.31;47.16;51.67;;
53135;Laerm;40912;51.552;9.874;2023-05-23T15:13:29;48.32;47.28;51.34;;
53135;Laerm;40912;51.552;9.874;2023-05-23T15:15:49;48.33;47.22;51.47;;
53135;Laerm;40912;51.552;9.874;2023-05-23T15:18:10;48.39;47.36;50.82;;
53135;Laerm;40912;51.552;9.874;2023-05-23T15:20:31;48.36;47.14;51.44;;
53135;Laerm;40912;51.552;9.874;2023-05-23T15:22:51;48.36;47.12;50.64;;
53135;Laerm;40912;51.552;9.874;2023-05-23T15:25:11;48.37;47.32;50.77;;
53135;Laerm;40912;51.552;9.874;2023-05-23T15:27:32;48.40;47.28;51.15;;
53135;Laerm;40912;51.552;9.874;2023-05-23T15:29:52;48.39;47.42;51.07;;
53135;Laerm;40912;51.552;9.874;2023-05-23T15:32:12;48.35;47.20;51.07;;
53135;Laerm;40912;51.552;9.874;2023-05-23T15:34:32;48.44;47.36;50.97;;
53135;Laerm;40912;51.552;9.874;2023-05-23T15:39:13;48.37;47.34;49.51;;
53135;Laerm;40912;51.552;9.874;2023-05-23T15:41:33;48.42;47.36;51.59;;
53135;Laerm;40912;51.552;9.874;2023-05-23T15:43:53;48.44;47.02;51.30;;
53135;Laerm;40912;51.552;9.874;2023-05-23T15:46:14;48.46;47.44;50.93;;
53135;Laerm;40912;51.552;9.874;2023-05-23T15:48:34;48.38;47.16;50.93;;
53135;Laerm;40912;51.552;9.874;2023-05-23T15:50:54;48.38;47.19;51.63;;
53135;Laerm;40912;51.552;9.874;2023-05-23T15:53:14;48.32;47.10;51.34;;